createdAt,value
2023-04-15T00:02:24.506Z,65.43
2023-04-15T00:04:51.456Z,65.78
2023-04-15T00:07:18.199Z,65.48
2023-04-15T00:09:44.991Z,65.14
2023-04-15T00:12:12.480Z,65.10
2023-04-15T00:14:40.705Z,65.25
2023-04-15T00:17:07.398Z,64.97
2023-04-15T00:19:34.160Z,65.12
2023-04-15T00:22:01.536Z,65.01
2023-04-15T00:24:28.272Z,64.53
2023-04-15T00:26:54.954Z,64.74
2023-04-15T00:29:21.662Z,64.66
2023-04-15T00:31:50.218Z,64.62
2023-04-15T00:34:16.938Z,64.59
2023-04-15T00:36:43.950Z,64.54
2023-04-15T00:39:10.949Z,64.42
2023-04-15T00:41:39.717Z,64.14
2023-04-15T00:44:06.707Z,64.22
2023-04-15T00:46:36.014Z,64.43
2023-04-15T00:49:05.643Z,64.22
2023-04-15T00:51:33.697Z,64.34
2023-04-15T00:54:00.748Z,64.58
2023-04-15T00:56:29.665Z,65.14
2023-04-15T00:58:57.135Z,64.86
2023-04-15T01:01:25.541Z,64.85
2023-04-15T01:03:52.376Z,65.40
2023-04-15T01:06:21.427Z,65.30
2023-04-15T01:08:48.257Z,65.50
2023-04-15T01:11:15.844Z,65.46
2023-04-15T01:13:42.542Z,65.45
2023-04-15T01:16:09.659Z,65.34
2023-04-15T01:18:37.752Z,65.21
2023-04-15T01:21:07.212Z,65.58
2023-04-15T01:23:39.404Z,65.25
2023-04-15T01:26:11.364Z,64.97
2023-04-15T01:28:38.967Z,65.42
2023-04-15T01:31:07.510Z,64.67
2023-04-15T01:33:37.269Z,64.85
2023-04-15T01:36:05.066Z,64.79
2023-04-15T01:38:33.112Z,64.85
2023-04-15T01:40:59.874Z,64.87
2023-04-15T01:43:28.357Z,64.64
2023-04-15T01:45:55.898Z,64.03
2023-04-15T01:48:23.033Z,64.13
2023-04-15T01:50:49.975Z,64.13
2023-04-15T01:53:16.904Z,64.39
2023-04-15T01:55:44.070Z,64.28
2023-04-15T01:58:10.735Z,64.46
2023-04-15T02:00:38.897Z,64.50
2023-04-15T02:03:06.632Z,64.26
2023-04-15T02:05:33.793Z,64.46
2023-04-15T02:08:00.626Z,64.92
2023-04-15T02:10:27.520Z,65.28
2023-04-15T02:12:54.393Z,65.28
2023-04-15T02:15:21.847Z,65.32
2023-04-15T02:17:52.680Z,65.28
2023-04-15T02:20:21.403Z,65.75
2023-04-15T02:22:48.572Z,65.38
2023-04-15T02:25:17.034Z,65.62
2023-04-15T02:27:46.850Z,65.73
2023-04-15T02:30:13.634Z,66.08
2023-04-15T02:32:41.310Z,65.85
2023-04-15T02:35:09.904Z,65.65
2023-04-15T02:37:41.571Z,65.47
2023-04-15T02:40:12.118Z,65.32
2023-04-15T02:42:39.350Z,65.29
2023-04-15T02:45:08.693Z,65.32
2023-04-15T02:47:36.341Z,65.27
2023-04-15T02:50:05.564Z,65.33
2023-04-15T02:52:33.879Z,64.79
2023-04-15T02:55:02.523Z,64.88
2023-04-15T02:57:29.868Z,64.76
2023-04-15T02:59:59.539Z,64.82
2023-04-15T03:02:26.639Z,64.50
2023-04-15T03:04:54.859Z,64.68
2023-04-15T03:07:22.056Z,64.63
2023-04-15T03:09:50.665Z,64.88
2023-04-15T03:12:17.291Z,64.98
2023-04-15T03:14:44.897Z,64.36
2023-04-15T03:17:11.528Z,64.17
2023-04-15T03:19:38.977Z,64.76
2023-04-15T03:22:05.818Z,64.48
2023-04-15T03:24:32.473Z,64.43
2023-04-15T03:27:02.030Z,64.58
2023-04-15T03:29:29.338Z,64.67
2023-04-15T03:31:56.241Z,64.34
2023-04-15T03:34:23.210Z,64.37
2023-04-15T03:36:50.139Z,64.35
2023-04-15T03:39:17.173Z,64.83
2023-04-15T03:41:43.991Z,64.48
2023-04-15T03:44:12.111Z,64.68
2023-04-15T03:46:38.877Z,64.28
2023-04-15T03:49:07.148Z,64.86
2023-04-15T03:51:33.904Z,64.46
2023-04-15T03:54:00.542Z,64.42
2023-04-15T03:56:27.183Z,65.27
2023-04-15T03:58:53.830Z,64.74
2023-04-15T04:01:23.049Z,64.93
2023-04-15T04:03:49.867Z,64.96
2023-04-15T04:06:16.984Z,64.69
2023-04-15T04:08:43.919Z,65.04
2023-04-15T04:11:10.681Z,64.92
2023-04-15T04:13:37.357Z,65.16
2023-04-15T04:16:05.093Z,64.83
2023-04-15T04:18:33.579Z,64.79
2023-04-15T04:21:00.619Z,65.20
2023-04-15T04:23:27.407Z,65.42
2023-04-15T04:25:54.045Z,65.42
2023-04-15T04:28:20.904Z,65.11
2023-04-15T04:30:47.650Z,65.32
2023-04-15T04:33:14.451Z,65.59
2023-04-15T04:35:42.621Z,65.51
2023-04-15T04:38:09.373Z,65.19
2023-04-15T04:40:36.489Z,65.24
2023-04-15T04:43:03.332Z,64.82
2023-04-15T04:45:30.008Z,65.14
2023-04-15T04:47:56.699Z,65.04
2023-04-15T04:50:23.373Z,65.37
2023-04-15T04:52:51.801Z,64.85
2023-04-15T04:55:18.652Z,65.50
2023-04-15T04:57:45.825Z,65.50
2023-04-15T05:00:14.037Z,65.41
2023-04-15T05:02:42.412Z,65.51
2023-04-15T05:05:09.823Z,65.79
2023-04-15T05:07:37.100Z,65.95
2023-04-15T05:10:06.626Z,66.15
2023-04-15T05:12:33.266Z,65.48
2023-04-15T05:15:00.089Z,65.98
2023-04-15T05:17:27.303Z,65.53
2023-04-15T05:19:54.062Z,66.47
2023-04-15T05:22:20.773Z,66.32
2023-04-15T05:24:47.621Z,66.05
2023-04-15T05:27:15.857Z,66.21
2023-04-15T05:29:42.802Z,66.12
2023-04-15T05:32:09.517Z,66.26
2023-04-15T05:34:36.176Z,65.56
2023-04-15T05:37:03.056Z,65.35
2023-04-15T05:39:29.682Z,65.66
2023-04-15T05:41:57.735Z,65.70
2023-04-15T05:44:25.905Z,64.50
2023-04-15T05:46:52.690Z,64.81
2023-04-15T05:49:19.326Z,64.36
2023-04-15T05:51:47.438Z,64.65
2023-04-15T05:54:14.221Z,64.57
2023-04-15T05:56:41.021Z,64.65
2023-04-15T05:59:28.395Z,64.43
2023-04-15T06:01:55.267Z,64.53
2023-04-15T06:04:22.855Z,64.42
2023-04-15T06:06:49.609Z,64.79
2023-04-15T06:09:16.993Z,64.28
2023-04-15T06:11:43.828Z,64.45
2023-04-15T06:14:10.558Z,64.32
2023-04-15T06:16:38.755Z,64.11
2023-04-15T06:19:05.532Z,63.99
2023-04-15T06:21:32.473Z,63.55
2023-04-15T06:24:01.429Z,63.62
2023-04-15T06:26:28.591Z,63.56
2023-04-15T06:28:55.675Z,63.68
2023-04-15T06:31:22.306Z,63.59
2023-04-15T06:33:50.969Z,63.77
2023-04-15T06:36:18.423Z,63.42
2023-04-15T06:38:45.462Z,63.45
2023-04-15T06:41:12.288Z,63.66
2023-04-15T06:43:40.425Z,63.48
2023-04-15T06:46:07.145Z,63.64
2023-04-15T06:48:33.849Z,63.75
2023-04-15T06:51:01.996Z,64.15
2023-04-15T06:53:29.082Z,64.29
2023-04-15T06:55:56.034Z,64.06
2023-04-15T06:58:22.865Z,64.10
2023-04-15T07:00:49.581Z,63.43
2023-04-15T07:03:16.351Z,63.53
2023-04-15T07:05:43.519Z,62.50
2023-04-15T07:08:11.563Z,62.51
2023-04-15T07:10:38.202Z,62.42
2023-04-15T07:13:05.735Z,62.18
2023-04-15T07:15:32.550Z,62.06
2023-04-15T07:17:59.207Z,61.98
2023-04-15T07:20:26.000Z,61.79
2023-04-15T07:22:53.098Z,61.48
2023-04-15T07:25:21.283Z,61.59
2023-04-15T07:27:48.127Z,61.68
2023-04-15T07:30:14.955Z,61.15
2023-04-15T07:32:42.619Z,61.85
2023-04-15T07:35:09.779Z,61.50
2023-04-15T07:37:36.583Z,61.05
2023-04-15T07:40:05.020Z,61.08
2023-04-15T07:42:33.634Z,60.68
2023-04-15T07:45:00.580Z,60.85
2023-04-15T07:47:27.505Z,60.34
2023-04-15T07:49:54.260Z,60.39
2023-04-15T07:52:20.982Z,59.78
2023-04-15T07:54:47.765Z,59.14
2023-04-15T07:57:14.480Z,58.72
2023-04-15T07:59:42.550Z,58.85
2023-04-15T08:02:09.915Z,57.27
2023-04-15T08:04:36.955Z,57.63
2023-04-15T08:07:04.832Z,57.64
2023-04-15T08:09:31.703Z,57.68
2023-04-15T08:11:58.339Z,57.69
2023-04-15T08:14:25.006Z,57.77
2023-04-15T08:16:53.412Z,58.22
2023-04-15T08:19:20.546Z,58.18
2023-04-15T08:21:47.598Z,58.27
2023-04-15T08:24:14.449Z,57.73
2023-04-15T08:26:41.948Z,57.07
2023-04-15T08:29:09.184Z,56.73
2023-04-15T08:31:35.979Z,56.34
2023-04-15T08:34:04.819Z,57.55
2023-04-15T08:36:32.469Z,57.08
2023-04-15T08:39:01.454Z,56.47
2023-04-15T08:41:32.432Z,57.23
2023-04-15T08:44:03.662Z,56.20
2023-04-15T08:46:31.586Z,56.74
2023-04-15T08:48:59.217Z,55.64
2023-04-15T08:51:27.677Z,55.84
2023-04-15T08:53:55.007Z,55.03
2023-04-15T08:56:25.247Z,54.85
2023-04-15T09:10:30.946Z,53.01
2023-04-15T09:12:57.824Z,52.95
2023-04-15T09:18:29.178Z,52.38
2023-04-15T09:20:56.526Z,52.38
2023-04-15T09:49:44.103Z,49.79
2023-04-15T09:52:14.370Z,49.64
2023-04-15T09:57:38.210Z,49.53
2023-04-15T10:00:07.634Z,49.33
2023-04-15T10:02:35.058Z,48.41
2023-04-15T10:05:02.478Z,48.31
2023-04-15T10:07:30.885Z,48.54
2023-04-15T10:10:00.867Z,48.41
2023-04-15T10:12:28.577Z,48.11
2023-04-15T10:14:59.363Z,48.60
2023-04-15T10:24:02.026Z,48.31
